Time;durP1;ratioP1;P1;durP2;ratioP2;P2;SDS_P1;SDS_P2;PMS_P1;PMS_P2;Temp;Humidity;BMP_temperature;BMP_pressure;BME280_temperature;BME280_humidity;BME280_pressure;Samples;Min_cycle;Max_cycle;Signal;HPM_P1;HPM_P2
2021/04/01 00:01:43;;;;;;;17.13;12.80;;;16.00;99.90;;;;;;5109568;28;20155;-69
2021/04/01 00:04:09;;;;;;;22.67;13.45;;;15.90;99.90;;;;;;5090911;28;20168;-69
2021/04/01 00:06:35;;;;;;;28.88;13.60;;;16.00;99.90;;;;;;5088426;28;20545;-69
2021/04/01 00:09:00;;;;;;;28.23;13.73;;;16.20;99.90;;;;;;5108843;28;20171;-69
2021/04/01 00:11:26;;;;;;;25.55;13.85;;;16.00;99.90;;;;;;5109501;28;20178;-69
2021/04/01 00:13:52;;;;;;;25.85;13.00;;;16.10;99.90;;;;;;5109097;28;20183;-69
2021/04/01 00:16:20;;;;;;;28.17;13.30;;;16.20;99.90;;;;;;5088081;28;20163;-69
2021/04/01 00:18:47;;;;;;;27.27;13.60;;;16.20;99.90;;;;;;5109242;28;20604;-69
2021/04/01 00:21:12;;;;;;;24.48;13.85;;;16.30;99.90;;;;;;5108879;28;20192;-69
2021/04/01 00:23:38;;;;;;;24.98;13.35;;;16.40;99.90;;;;;;5090606;28;20246;-69
2021/04/01 00:26:04;;;;;;;29.02;13.90;;;16.50;99.90;;;;;;5106240;28;20183;-69
2021/04/01 00:28:29;;;;;;;23.23;13.40;;;16.40;99.90;;;;;;5108662;28;20167;-68
2021/04/01 00:30:55;;;;;;;22.02;12.82;;;16.20;99.90;;;;;;5108731;28;20204;-68
2021/04/01 00:33:21;;;;;;;26.92;13.73;;;15.90;99.90;;;;;;5108859;28;20195;-69
2021/04/01 00:35:46;;;;;;;22.50;12.10;;;15.80;99.90;;;;;;5106014;28;20179;-69
2021/04/01 00:38:12;;;;;;;22.50;11.23;;;15.90;99.90;;;;;;5108607;28;20163;-69
2021/04/01 00:40:38;;;;;;;25.58;11.25;;;15.90;99.90;;;;;;5108675;28;20239;-69
2021/04/01 00:43:04;;;;;;;22.05;12.20;;;15.90;99.90;;;;;;5108508;28;20163;-69
2021/04/01 00:45:30;;;;;;;22.73;12.13;;;16.00;99.90;;;;;;5105783;28;20231;-69
2021/04/01 00:47:55;;;;;;;22.83;11.93;;;16.20;99.90;;;;;;5090234;28;20283;-69
2021/04/01 00:50:24;;;;;;;21.55;11.90;;;16.10;99.90;;;;;;5108622;28;20178;-69
2021/04/01 00:52:50;;;;;;;26.10;12.57;;;16.20;99.90;;;;;;5108483;28;20191;-68
2021/04/01 00:55:16;;;;;;;24.25;13.25;;;16.20;99.90;;;;;;5105321;28;20170;-69
2021/04/01 00:57:44;;;;;;;19.48;12.48;;;16.10;99.90;;;;;;5108420;28;20163;-69
2021/04/01 01:00:13;;;;;;;27.30;13.27;;;15.90;99.90;;;;;;5089894;28;20183;-69
2021/04/01 01:02:39;;;;;;;27.38;13.57;;;15.50;99.90;;;;;;5108297;28;20617;-69
2021/04/01 01:05:08;;;;;;;32.42;13.77;;;15.20;99.90;;;;;;5106515;28;20671;-69
2021/04/01 01:07:34;;;;;;;26.33;15.15;;;15.20;99.90;;;;;;5107534;28;20682;-69
2021/04/01 01:10:01;;;;;;;29.30;14.63;;;15.20;99.90;;;;;;5107580;28;20167;-69
2021/04/01 01:12:26;;;;;;;28.10;14.88;;;15.20;99.90;;;;;;5107959;28;20273;-69
2021/04/01 01:14:52;;;;;;;29.15;14.82;;;15.20;99.90;;;;;;5107585;28;20159;-69
2021/04/01 01:17:18;;;;;;;38.97;15.43;;;15.20;99.90;;;;;;5105824;28;20230;-69
2021/04/01 01:19:51;;;;;;;33.53;17.70;;;15.20;99.90;;;;;;5108093;28;20172;-69
2021/04/01 01:22:19;;;;;;;35.08;17.15;;;15.50;99.90;;;;;;5089953;28;20174;-69
2021/04/01 01:24:44;;;;;;;34.75;17.02;;;15.60;99.90;;;;;;5107645;28;20629;-69
2021/04/01 01:27:10;;;;;;;36.92;17.50;;;15.50;99.90;;;;;;5105176;28;20545;-69
2021/04/01 01:29:36;;;;;;;30.40;16.98;;;15.50;99.90;;;;;;5107659;28;20215;-69
2021/04/01 01:32:02;;;;;;;32.80;17.00;;;15.40;99.90;;;;;;5107428;28;20174;-69
2021/04/01 01:34:28;;;;;;;34.72;18.50;;;15.30;99.90;;;;;;5107645;28;20163;-69
2021/04/01 01:36:54;;;;;;;32.45;17.45;;;15.30;99.90;;;;;;5104669;28;20198;-69
2021/04/01 01:39:20;;;;;;;30.52;16.20;;;15.30;99.90;;;;;;5107355;28;20174;-69
2021/04/01 01:41:46;;;;;;;41.70;18.95;;;15.20;99.90;;;;;;5107668;28;20164;-69
2021/04/01 01:44:11;;;;;;;31.90;17.90;;;15.20;99.90;;;;;;5107487;28;20160;-69
2021/04/01 01:46:37;;;;;;;34.00;17.90;;;15.20;99.90;;;;;;5104727;28;20183;-69
2021/04/01 01:49:03;;;;;;;30.80;17.77;;;15.00;99.90;;;;;;5107470;28;20159;-69
2021/04/01 01:51:29;;;;;;;34.92;18.95;;;15.00;99.90;;;;;;5107330;28;20184;-69
2021/04/01 01:53:55;;;;;;;31.95;17.77;;;15.00;99.90;;;;;;5106829;28;20187;-69
2021/04/01 01:56:26;;;;;;;35.97;17.60;;;14.90;99.90;;;;;;5104573;28;20171;-69
2021/04/01 01:58:54;;;;;;;27.50;16.17;;;14.90;99.90;;;;;;5107153;28;20163;-69
2021/04/01 02:01:23;;;;;;;27.48;16.67;;;14.80;99.90;;;;;;5107348;28;20160;-69
2021/04/01 02:03:48;;;;;;;29.58;16.67;;;14.80;99.90;;;;;;5107209;28;20163;-69
2021/04/01 02:06:17;;;;;;;27.65;16.67;;;14.80;99.90;;;;;;5104183;28;20171;-69
2021/04/01 02:08:43;;;;;;;31.48;17.38;;;14.80;99.90;;;;;;5087884;28;20199;-69
2021/04/01 02:11:10;;;;;;;29.45;16.15;;;14.70;99.90;;;;;;5106965;28;20209;-69
2021/04/01 02:13:36;;;;;;;31.60;17.25;;;14.80;99.90;;;;;;5106872;28;20195;-69
2021/04/01 02:16:02;;;;;;;31.63;17.73;;;14.90;99.90;;;;;;5104122;28;20231;-69
2021/04/01 02:18:29;;;;;;;29.35;16.23;;;14.80;99.90;;;;;;5106843;28;20156;-69
2021/04/01 02:20:58;;;;;;;30.70;16.85;;;14.60;99.90;;;;;;5106554;28;20183;-69
2021/04/01 02:23:33;;;;;;;33.97;16.95;;;14.70;99.90;;;;;;5106366;28;20636;-69
2021/04/01 02:26:01;;;;;;;29.33;16.48;;;14.80;99.90;;;;;;5103932;28;20198;-69
2021/04/01 02:28:29;;;;;;;36.60;17.30;;;14.60;99.90;;;;;;5106594;28;20159;-69
2021/04/01 02:30:57;;;;;;;25.92;16.27;;;14.50;99.90;;;;;;5106455;28;20745;-69
2021/04/01 02:33:25;;;;;;;29.80;16.45;;;14.40;99.90;;;;;;5106516;28;20191;-69
2021/04/01 02:35:51;;;;;;;32.15;17.45;;;14.40;99.90;;;;;;5103890;28;20166;-69
2021/04/01 02:38:17;;;;;;;30.65;17.50;;;14.50;99.90;;;;;;5106222;28;20167;-69
2021/04/01 02:40:43;;;;;;;35.40;18.20;;;14.50;99.90;;;;;;5088268;28;20727;-69
2021/04/01 02:43:10;;;;;;;35.28;16.75;;;14.70;99.90;;;;;;5106237;28;20167;-69
2021/04/01 02:45:35;;;;;;;29.42;17.30;;;15.00;99.90;;;;;;5103678;28;20175;-69
2021/04/01 02:48:02;;;;;;;28.23;16.58;;;15.30;99.90;;;;;;5106224;28;20167;-69
2021/04/01 02:50:27;;;;;;;39.45;17.17;;;15.30;99.90;;;;;;5106151;28;20183;-69
2021/04/01 02:52:53;;;;;;;31.25;17.13;;;15.10;99.90;;;;;;5087804;28;20197;-69
2021/04/01 02:55:19;;;;;;;34.13;18.52;;;14.90;99.90;;;;;;5103206;28;20591;-69
2021/04/01 02:57:45;;;;;;;36.67;17.70;;;15.00;99.90;;;;;;5106081;28;20201;-69
2021/04/01 03:00:15;;;;;;;38.27;19.23;;;15.00;99.90;;;;;;5106124;28;20159;-69
2021/04/01 03:02:50;;;;;;;43.38;20.17;;;15.00;99.90;;;;;;5087985;28;20172;-69
2021/04/01 03:05:16;;;;;;;43.10;19.15;;;14.80;99.90;;;;;;5103225;28;20724;-69
2021/04/01 03:07:41;;;;;;;38.90;17.58;;;14.40;99.90;;;;;;5105982;28;20195;-69
2021/04/01 03:10:09;;;;;;;30.60;17.27;;;14.40;99.90;;;;;;5105468;28;20167;-69
2021/04/01 03:12:35;;;;;;;32.33;18.10;;;14.20;99.90;;;;;;5106018;28;20205;-69
2021/04/01 03:15:01;;;;;;;33.17;17.73;;;14.10;99.90;;;;;;5104570;28;20159;-69
2021/04/01 03:17:27;;;;;;;35.42;18.65;;;14.10;99.90;;;;;;5104666;28;20207;-70
2021/04/01 03:19:53;;;;;;;42.17;19.65;;;14.00;99.90;;;;;;5105778;28;20189;-69
2021/04/01 03:22:18;;;;;;;39.90;17.13;;;14.00;99.90;;;;;;5106004;28;20175;-69
2021/04/01 03:24:44;;;;;;;38.50;17.00;;;14.00;99.90;;;;;;5105437;28;20174;-68
2021/04/01 03:27:10;;;;;;;43.20;16.70;;;14.10;99.90;;;;;;5102765;28;20156;-69
2021/04/01 03:29:36;;;;;;;43.42;17.23;;;14.10;99.90;;;;;;5105456;28;20260;-69
2021/04/01 03:32:01;;;;;;;39.88;19.40;;;14.30;99.90;;;;;;5105304;28;20159;-69
2021/04/01 03:34:28;;;;;;;35.50;17.38;;;14.70;99.90;;;;;;5105463;28;20522;-69
2021/04/01 03:36:54;;;;;;;41.22;19.33;;;14.90;99.90;;;;;;5102584;28;20195;-69
2021/04/01 03:39:19;;;;;;;37.22;19.48;;;15.00;99.90;;;;;;5105469;28;20174;-69
2021/04/01 03:41:45;;;;;;;42.43;19.87;;;14.90;99.90;;;;;;5087691;28;20208;-69
2021/04/01 03:44:10;;;;;;;49.57;20.27;;;14.70;99.90;;;;;;5105480;28;20169;-69
2021/04/01 03:46:36;;;;;;;45.30;20.77;;;14.60;99.90;;;;;;5102635;28;20167;-69
2021/04/01 03:49:03;;;;;;;52.33;20.70;;;14.60;99.90;;;;;;5105484;28;20224;-69
2021/04/01 03:51:29;;;;;;;52.47;19.75;;;14.40;99.90;;;;;;5105354;28;20163;-69
2021/04/01 03:53:54;;;;;;;45.15;20.80;;;14.40;99.90;;;;;;5105165;28;20199;-69
2021/04/01 03:56:21;;;;;;;40.55;19.98;;;14.30;99.90;;;;;;5084832;28;20160;-69
2021/04/01 03:59:06;;;;;;;43.83;19.13;;;14.30;99.90;;;;;;5105576;28;20186;-69
2021/04/01 04:01:53;;;;;;;44.10;21.65;;;14.40;99.90;;;;;;5105496;28;20174;-69
2021/04/01 04:04:27;;;;;;;46.72;23.80;;;14.60;99.90;;;;;;5087263;28;20169;-69
2021/04/01 04:15:04;;;;;;;43.63;22.73;;;14.70;99.90;;;;;;5105085;28;20190;-68
2021/04/01 04:17:30;;;;;;;52.87;24.07;;;14.50;99.90;;;;;;5104168;28;20186;-69
2021/04/01 04:19:56;;;;;;;52.80;23.70;;;14.40;99.90;;;;;;5105140;28;20156;-69
2021/04/01 04:22:22;;;;;;;47.13;23.33;;;14.30;99.90;;;;;;5105285;28;20160;-69
2021/04/01 04:24:48;;;;;;;44.63;22.30;;;14.50;99.90;;;;;;5104998;28;20171;-69
2021/04/01 04:29:59;;;;;;;42.63;22.87;;;14.60;99.90;;;;;;5104781;28;20222;-68
2021/04/01 04:32:30;;;;;;;41.23;21.10;;;14.70;99.90;;;;;;5107980;28;20278;-69
2021/04/01 04:34:56;;;;;;;44.87;21.63;;;14.60;99.90;;;;;;5108162;28;20181;-68
2021/04/01 04:37:22;;;;;;;51.58;23.17;;;14.60;99.90;;;;;;5107059;28;20152;-68
2021/04/01 04:39:48;;;;;;;40.23;21.47;;;14.50;99.90;;;;;;5108547;28;20175;-68
2021/04/01 04:42:14;;;;;;;47.30;22.93;;;14.40;99.90;;;;;;5090559;28;20164;-69
2021/04/01 04:44:40;;;;;;;45.57;22.43;;;14.40;99.90;;;;;;5108496;28;20159;-68
2021/04/01 04:47:05;;;;;;;48.67;22.87;;;14.30;99.90;;;;;;5105727;28;20176;-69
2021/04/01 04:49:31;;;;;;;49.53;21.30;;;14.00;99.90;;;;;;5108376;28;20217;-69
2021/04/01 04:51:57;;;;;;;48.38;25.50;;;13.70;99.90;;;;;;5107173;28;20441;-69
2021/04/01 04:54:22;;;;;;;47.72;23.35;;;13.70;99.90;;;;;;5108210;28;20163;-69
2021/04/01 04:56:51;;;;;;;52.72;23.85;;;13.70;99.90;;;;;;5105740;28;20661;-69
2021/04/01 04:59:26;;;;;;;50.92;24.10;;;13.60;99.90;;;;;;5108686;28;20152;-69
2021/04/01 05:04:42;;;;;;;52.17;21.90;;;13.40;99.90;;;;;;5108489;28;20174;-68
2021/04/01 05:07:08;;;;;;;50.67;21.40;;;13.40;99.90;;;;;;5105456;28;20156;-68
2021/04/01 05:09:34;;;;;;;51.92;23.10;;;13.40;99.90;;;;;;5107966;28;20747;-69
2021/04/01 05:11:59;;;;;;;49.33;22.23;;;13.40;99.90;;;;;;5107805;28;20160;-69
2021/04/01 05:14:25;;;;;;;45.45;22.17;;;13.30;99.90;;;;;;5089832;28;20290;-69
2021/04/01 05:16:51;;;;;;;46.33;22.17;;;13.30;99.90;;;;;;5105527;28;20251;-69
2021/04/01 05:19:17;;;;;;;53.47;22.52;;;13.20;99.90;;;;;;5108249;28;20170;-69
2021/04/01 05:24:11;;;;;;;50.30;22.60;;;13.20;99.90;;;;;;5107756;28;20247;-68
2021/04/01 05:29:16;;;;;;;47.35;21.40;;;13.40;99.90;;;;;;5107739;28;20210;-69
2021/04/01 05:31:42;;;;;;;41.23;22.23;;;13.20;99.90;;;;;;5089599;28;20163;-68
2021/04/01 05:34:08;;;;;;;49.53;21.60;;;13.20;99.90;;;;;;5107652;28;20247;-69
2021/04/01 05:36:40;;;;;;;49.07;21.20;;;13.10;99.90;;;;;;5086916;28;20173;-69
2021/04/01 05:39:09;;;;;;;39.23;19.47;;;12.90;99.90;;;;;;5089234;28;20608;-68
2021/04/01 05:41:36;;;;;;;39.78;20.30;;;12.70;99.90;;;;;;5107488;28;20167;-69
2021/04/01 05:44:13;;;;;;;48.10;21.57;;;12.60;99.90;;;;;;5088290;28;20178;-69
2021/04/01 05:49:31;;;;;;;51.43;21.17;;;12.70;99.90;;;;;;5107457;28;20167;-69
2021/04/01 06:05:50;;;;;;;52.00;21.57;;;13.50;99.90;;;;;;5080445;28;20187;-69
2021/04/01 06:08:20;;;;;;;57.83;23.27;;;13.40;99.90;;;;;;5106661;28;20159;-69
2021/04/01 06:10:48;;;;;;;61.10;23.73;;;13.40;99.90;;;;;;5086232;28;20186;-69
2021/04/01 06:13:16;;;;;;;52.75;23.50;;;13.60;99.90;;;;;;5105429;28;20190;-68
2021/04/01 06:15:49;;;;;;;58.13;24.13;;;13.70;99.90;;;;;;5104180;28;20588;-71
2021/04/01 06:18:19;;;;;;;45.33;23.10;;;13.50;99.90;;;;;;5106890;28;20152;-69
2021/04/01 06:20:47;;;;;;;46.45;23.27;;;13.30;99.90;;;;;;5106845;28;20221;-69
2021/04/01 06:23:27;;;;;;;56.40;23.42;;;13.30;99.90;;;;;;5106639;28;20187;-69
2021/04/01 06:25:57;;;;;;;65.85;23.98;;;13.30;99.90;;;;;;5103782;28;20177;-69
2021/04/01 06:28:48;;;;;;;54.25;23.23;;;13.20;99.90;;;;;;5106655;28;20254;-68
2021/04/01 06:31:18;;;;;;;49.05;23.27;;;13.50;99.90;;;;;;5106547;28;20178;-68
2021/04/01 06:33:48;;;;;;;61.55;24.88;;;13.70;99.90;;;;;;5106694;28;20217;-68
2021/04/01 06:36:21;;;;;;;63.45;25.08;;;13.80;99.90;;;;;;5103790;28;20198;-68
2021/04/01 06:38:48;;;;;;;52.67;24.48;;;14.10;99.90;;;;;;5106120;28;20163;-68
2021/04/01 06:41:24;;;;;;;50.92;24.13;;;14.20;99.90;;;;;;5106455;28;20155;-68
2021/04/01 06:43:56;;;;;;;53.83;24.77;;;14.50;99.90;;;;;;5088242;28;20208;-68
2021/04/01 06:46:33;;;;;;;62.70;24.83;;;14.60;99.90;;;;;;5103908;28;20175;-69
2021/04/01 06:52:10;;;;;;;56.83;27.23;;;15.00;99.90;;;;;;5106332;28;20181;-69
2021/04/01 06:54:35;;;;;;;49.72;24.23;;;15.00;99.90;;;;;;5105012;28;20195;-69
2021/04/01 06:57:26;;;;;;;45.45;24.13;;;15.10;99.90;;;;;;5103541;28;20171;-69
2021/04/01 07:00:30;;;;;;;52.03;25.35;;;15.00;99.90;;;;;;5106095;28;20159;-69
2021/04/01 07:03:12;;;;;;;50.10;24.90;;;15.10;99.90;;;;;;5105988;28;20167;-69
2021/04/01 07:08:20;;;;;;;51.05;25.98;;;15.20;99.90;;;;;;5105995;28;20233;-69
2021/04/01 07:11:02;;;;;;;49.97;25.42;;;15.40;99.90;;;;;;5105508;28;20166;-69
2021/04/01 07:13:34;;;;;;;62.13;26.58;;;15.60;99.90;;;;;;5105599;28;20190;-69
2021/04/01 07:16:16;;;;;;;53.55;26.85;;;15.70;99.90;;;;;;5103168;28;20166;-69
2021/04/01 07:19:04;;;;;;;54.78;27.80;;;15.90;99.90;;;;;;5087711;28;20189;-69
2021/04/01 07:48:43;;;;;;;80.90;33.75;;;17.00;99.90;;;;;;5105551;28;20204;-68
2021/04/01 07:54:16;;;;;;;59.67;32.63;;;17.10;99.90;;;;;;5073285;28;20682;-69
2021/04/01 07:59:26;;;;;;;66.47;34.17;;;16.90;99.90;;;;;;5105288;28;20191;-68
2021/04/01 08:04:18;;;;;;;74.65;35.28;;;16.80;99.90;;;;;;5105451;28;20182;-68
2021/04/01 08:06:44;;;;;;;68.53;32.80;;;16.70;99.90;;;;;;5104867;28;20187;-68
2021/04/01 08:09:13;;;;;;;56.67;31.23;;;16.60;99.90;;;;;;5108836;28;20163;-68
2021/04/01 08:11:46;;;;;;;63.38;31.60;;;16.60;99.90;;;;;;5090910;28;20250;-68
2021/04/01 08:14:19;;;;;;;59.35;31.90;;;16.70;99.90;;;;;;5108254;28;20194;-68
2021/04/01 08:17:15;;;;;;;64.32;33.03;;;16.50;99.90;;;;;;5087617;28;20163;-68
2021/04/01 08:19:38;;;;;;;65.53;32.53;;;16.40;99.90;;;;;;5108208;28;20174;-68
2021/04/01 08:22:10;;;;;;;69.57;33.95;;;16.40;99.90;;;;;;5090503;28;20193;-68
2021/04/01 08:24:46;;;;;;;72.35;34.58;;;16.50;99.90;;;;;;5108814;28;20167;-68
2021/04/01 08:35:01;;;;;;;83.20;35.40;;;17.00;99.90;;;;;;5108075;28;20163;-68
2021/04/01 08:37:33;;;;;;;78.00;35.22;;;17.20;99.90;;;;;;5107488;28;20182;-68
2021/04/01 08:40:02;;;;;;;74.20;33.63;;;17.00;99.90;;;;;;5108070;28;20167;-68
2021/04/01 08:42:50;;;;;;;68.68;33.45;;;17.10;99.90;;;;;;5108643;28;20220;-68
2021/04/01 08:45:30;;;;;;;84.13;35.42;;;17.60;99.90;;;;;;5105360;28;20156;-68
2021/04/01 08:48:41;;;;;;;82.53;34.88;;;17.90;99.90;;;;;;5108067;28;20192;-69
2021/04/01 08:51:12;;;;;;;82.75;37.92;;;18.20;99.90;;;;;;5051580;28;20277;-68
2021/04/01 08:53:41;;;;;;;77.82;36.53;;;18.10;99.90;;;;;;5108293;28;20222;-69
2021/04/01 08:56:21;;;;;;;67.72;35.58;;;18.20;99.90;;;;;;5105305;28;20191;-69
2021/04/01 08:58:56;;;;;;;74.72;35.42;;;18.00;99.90;;;;;;5107499;28;20165;-69
2021/04/01 09:01:31;;;;;;;79.40;37.50;;;18.10;99.90;;;;;;5108075;28;20170;-69
2021/04/01 09:03:59;;;;;;;81.43;37.38;;;18.20;99.90;;;;;;5107031;28;20538;-68
2021/04/01 09:06:30;;;;;;;77.70;37.90;;;18.10;99.90;;;;;;5104948;28;20686;-69
2021/04/01 09:09:06;;;;;;;71.13;36.25;;;18.20;99.90;;;;;;5088979;28;20175;-68
2021/04/01 09:14:15;;;;;;;80.28;36.60;;;18.50;99.90;;;;;;5107653;28;20199;-69
2021/04/01 09:16:48;;;;;;;75.75;37.70;;;18.80;99.90;;;;;;5104727;28;20179;-69
2021/04/01 09:19:25;;;;;;;76.68;36.92;;;19.00;99.90;;;;;;5107091;28;20151;-69
2021/04/01 09:21:52;;;;;;;69.75;34.97;;;19.30;99.90;;;;;;5107412;28;20162;-69
2021/04/01 09:24:20;;;;;;;72.85;35.22;;;19.30;99.90;;;;;;5107183;28;20172;-69
2021/04/01 09:26:48;;;;;;;73.07;34.17;;;19.20;99.90;;;;;;5104973;28;20258;-69
2021/04/01 09:29:15;;;;;;;80.78;33.70;;;19.10;99.90;;;;;;5107329;28;20241;-69
2021/04/01 09:31:48;;;;;;;67.47;34.42;;;19.00;99.90;;;;;;5107026;28;20166;-69
2021/04/01 09:34:17;;;;;;;62.78;33.15;;;19.00;99.90;;;;;;5106916;28;20217;-69
2021/04/01 09:36:44;;;;;;;74.45;33.50;;;19.20;99.90;;;;;;5085740;28;20163;-69
2021/04/01 09:39:27;;;;;;;67.88;32.05;;;19.20;99.90;;;;;;5106957;28;20181;-69
2021/04/01 09:42:08;;;;;;;69.60;30.92;;;19.60;99.90;;;;;;5107004;28;20159;-69
2021/04/01 09:44:36;;;;;;;61.05;28.40;;;19.50;99.90;;;;;;5107128;28;20620;-69
2021/04/01 09:47:15;;;;;;;56.28;27.83;;;19.60;99.90;;;;;;5104635;28;20660;-69
2021/04/01 09:49:53;;;;;;;57.60;27.90;;;19.50;99.90;;;;;;5107171;28;20170;-69
2021/04/01 09:52:26;;;;;;;61.67;28.48;;;19.50;99.90;;;;;;5107329;28;20159;-68
2021/04/01 09:55:00;;;;;;;54.47;27.92;;;19.60;99.90;;;;;;5106764;28;20167;-68
2021/04/01 09:57:39;;;;;;;55.72;27.63;;;19.60;99.90;;;;;;5105556;28;20167;-68
2021/04/01 10:00:10;;;;;;;51.28;26.55;;;19.80;99.90;;;;;;5106915;28;20160;-68
2021/04/01 10:02:41;;;;;;;46.28;25.20;;;19.90;99.90;;;;;;5106844;28;20288;-68
2021/04/01 10:05:07;;;;;;;50.88;25.83;;;20.00;99.90;;;;;;5105386;28;20250;-68
2021/04/01 10:07:36;;;;;;;56.38;25.15;;;19.90;99.90;;;;;;5106121;28;20171;-68
2021/04/01 10:10:04;;;;;;;58.25;24.73;;;19.80;99.90;;;;;;5106490;28;20216;-68
2021/04/01 10:12:36;;;;;;;53.92;24.90;;;19.80;99.90;;;;;;5088593;28;20241;-69
2021/04/01 10:15:09;;;;;;;52.40;25.80;;;19.80;99.90;;;;;;5087543;28;20193;-68
2021/04/01 10:17:36;;;;;;;50.63;26.00;;;19.80;99.90;;;;;;5106275;28;20570;-68
2021/04/01 10:20:03;;;;;;;52.05;24.23;;;19.80;99.90;;;;;;5106124;28;20167;-68
2021/04/01 10:22:32;;;;;;;54.80;26.58;;;19.90;99.90;;;;;;5106434;28;20160;-68
2021/04/01 10:27:50;;;;;;;56.72;25.73;;;20.10;99.90;;;;;;5106441;28;20236;-69
2021/04/01 10:30:18;;;;;;;51.75;26.63;;;20.10;99.90;;;;;;5105764;28;20210;-69
2021/04/01 10:33:00;;;;;;;56.05;28.95;;;20.10;99.90;;;;;;5106074;28;20254;-69
2021/04/01 10:35:29;;;;;;;58.08;29.88;;;20.30;99.90;;;;;;5085902;28;20368;-69
2021/04/01 10:37:57;;;;;;;65.68;30.40;;;20.60;99.90;;;;;;5087859;28;20320;-69
2021/04/01 10:40:25;;;;;;;61.05;30.10;;;20.90;99.90;;;;;;5105832;28;20244;-69
2021/04/01 10:43:02;;;;;;;70.20;31.00;;;20.80;99.90;;;;;;5106611;28;20245;-69
2021/04/01 10:45:36;;;;;;;57.22;29.08;;;20.90;99.90;;;;;;5103631;28;20400;-68
2021/04/01 10:48:04;;;;;;;58.28;29.65;;;20.90;99.90;;;;;;5106062;28;20174;-69
2021/04/01 10:50:31;;;;;;;47.28;27.55;;;20.90;99.90;;;;;;5106321;28;20183;-69
2021/04/01 10:52:57;;;;;;;63.42;30.10;;;20.90;99.90;;;;;;5106093;28;20260;-69
2021/04/01 10:55:30;;;;;;;54.40;29.35;;;20.90;99.90;;;;;;5103392;28;20202;-69
2021/04/01 10:58:10;;;;;;;63.03;29.58;;;21.10;99.90;;;;;;5087750;28;20545;-68
2021/04/01 11:00:36;;;;;;;55.60;29.95;;;21.10;99.90;;;;;;5106007;28;20171;-69
2021/04/01 11:03:05;;;;;;;55.45;30.35;;;21.20;99.90;;;;;;5105718;28;20187;-69
2021/04/01 11:05:35;;;;;;;72.32;32.17;;;21.50;99.90;;;;;;5103581;28;20211;-69
2021/04/01 11:08:07;;;;;;;62.03;31.15;;;21.50;99.90;;;;;;5105737;28;20165;-69
2021/04/01 11:10:34;;;;;;;66.88;32.40;;;21.30;99.90;;;;;;5087731;28;20171;-69
2021/04/01 11:13:06;;;;;;;66.13;35.28;;;21.20;99.90;;;;;;5105511;28;20214;-68
2021/04/01 11:15:35;;;;;;;79.70;38.42;;;21.20;99.90;;;;;;5103381;28;20279;-68
2021/04/01 11:18:17;;;;;;;78.82;39.08;;;21.10;99.90;;;;;;5105628;28;20223;-68
2021/04/01 11:20:43;;;;;;;82.80;41.45;;;21.40;99.90;;;;;;5105816;28;20635;-69
2021/04/01 11:23:16;;;;;;;84.43;43.05;;;21.30;99.90;;;;;;5087261;28;20328;-69
2021/04/01 11:25:51;;;;;;;84.85;43.20;;;21.20;99.90;;;;;;5102825;28;20637;-69
2021/04/01 11:28:18;;;;;;;73.40;38.63;;;21.20;99.90;;;;;;5105826;28;20159;-69
2021/04/01 11:30:54;;;;;;;93.60;44.97;;;21.40;99.90;;;;;;5105700;28;20215;-69
2021/04/01 11:33:23;;;;;;;94.35;45.95;;;21.50;99.90;;;;;;5105672;28;20196;-69
2021/04/01 11:36:00;;;;;;;83.55;44.92;;;21.60;99.90;;;;;;5103267;28;20159;-69
2021/04/01 11:38:26;;;;;;;90.43;46.40;;;21.60;99.90;;;;;;5105535;28;20166;-68
2021/04/01 11:40:55;;;;;;;82.70;43.80;;;21.70;99.90;;;;;;5105807;28;20167;-68
2021/04/01 11:43:27;;;;;;;89.28;45.95;;;21.70;99.90;;;;;;5091738;28;20572;-69
2021/04/01 11:45:53;;;;;;;97.82;45.88;;;21.40;99.90;;;;;;5106481;28;20222;-68
2021/04/01 11:48:19;;;;;;;93.55;46.75;;;21.00;99.90;;;;;;5109178;28;20160;-69
2021/04/01 11:50:45;;;;;;;91.68;48.05;;;21.10;99.90;;;;;;5109433;28;20202;-69
2021/04/01 11:53:11;;;;;;;94.63;46.83;;;21.30;99.90;;;;;;5108918;28;20251;-69
2021/04/01 11:55:46;;;;;;;94.97;46.70;;;21.20;99.90;;;;;;5106689;28;20249;-70
2021/04/01 11:58:12;;;;;;;99.88;48.90;;;21.30;99.90;;;;;;5108032;28;20226;-69
2021/04/01 12:00:38;;;;;;;97.57;48.50;;;21.30;99.90;;;;;;5108699;28;20162;-69
2021/04/01 12:03:09;;;;;;;97.25;45.78;;;21.30;99.90;;;;;;5108978;28;20675;-70
2021/04/01 12:05:41;;;;;;;86.53;46.65;;;21.30;99.90;;;;;;5106866;28;20167;-70
2021/04/01 12:08:07;;;;;;;88.70;46.83;;;21.40;99.90;;;;;;5108927;28;20181;-69
2021/04/01 12:10:33;;;;;;;97.72;49.33;;;21.40;99.90;;;;;;5109058;28;20254;-69
2021/04/01 12:13:00;;;;;;;106.87;54.40;;;21.30;99.90;;;;;;5108269;28;20436;-69
2021/04/01 12:15:33;;;;;;;99.35;52.65;;;21.30;99.90;;;;;;5106459;28;20156;-69
2021/04/01 12:17:58;;;;;;;96.80;52.20;;;21.40;99.90;;;;;;5108724;28;20171;-69
2021/04/01 12:20:24;;;;;;;102.00;54.10;;;21.60;99.90;;;;;;5109185;28;20182;-69
2021/04/01 12:22:54;;;;;;;101.20;51.95;;;21.50;99.90;;;;;;5108993;28;20167;-69
2021/04/01 12:25:20;;;;;;;111.28;55.15;;;21.50;99.90;;;;;;5106309;28;20262;-70
2021/04/01 12:27:56;;;;;;;113.95;54.58;;;21.50;99.90;;;;;;5108997;28;20155;-69
2021/04/01 12:30:25;;;;;;;105.22;53.30;;;21.30;99.90;;;;;;5108597;28;20282;-68
2021/04/01 12:32:51;;;;;;;102.70;53.00;;;21.20;99.90;;;;;;5108707;28;20264;-69
2021/04/01 12:35:19;;;;;;;111.00;55.38;;;21.50;99.90;;;;;;5106118;28;20156;-68
2021/04/01 12:37:57;;;;;;;106.25;54.45;;;21.30;99.90;;;;;;5108589;28;20171;-69
2021/04/01 12:40:23;;;;;;;126.55;57.60;;;21.20;99.90;;;;;;5108193;28;20170;-69
2021/04/01 12:42:49;;;;;;;110.53;56.35;;;21.40;99.90;;;;;;5108711;28;20163;-69
2021/04/01 12:45:19;;;;;;;106.78;55.08;;;21.30;99.90;;;;;;5105672;28;20874;-68
2021/04/01 12:47:45;;;;;;;103.43;55.83;;;21.30;99.90;;;;;;5090116;28;20205;-69
2021/04/01 12:50:12;;;;;;;106.80;56.50;;;21.20;99.90;;;;;;5108130;28;20167;-69
2021/04/01 12:52:52;;;;;;;109.55;56.00;;;21.50;99.90;;;;;;5089443;28;20207;-69
2021/04/01 12:55:32;;;;;;;104.22;55.80;;;21.50;99.90;;;;;;5105478;28;20187;-68
2021/04/01 12:57:58;;;;;;;110.35;56.65;;;21.20;99.90;;;;;;5108076;28;20157;-69
2021/04/01 13:00:44;;;;;;;107.15;53.53;;;21.40;99.90;;;;;;5108384;28;20195;-69
2021/04/01 13:03:11;;;;;;;100.50;52.55;;;21.50;99.90;;;;;;5089783;28;20175;-68
2021/04/01 13:05:40;;;;;;;101.55;52.15;;;21.60;99.90;;;;;;5105490;28;20173;-69
2021/04/01 13:13:00;;;;;;;102.43;50.70;;;22.00;99.90;;;;;;5107701;28;20191;-69
2021/04/01 13:15:26;;;;;;;114.95;53.78;;;21.30;99.90;;;;;;5105155;28;20174;-69
2021/04/01 13:17:51;;;;;;;104.60;52.63;;;21.50;99.90;;;;;;5107919;28;20156;-69
2021/04/01 13:20:17;;;;;;;103.95;49.80;;;21.10;99.90;;;;;;5108039;28;20151;-69
2021/04/01 13:25:30;;;;;;;95.00;45.30;;;20.70;99.90;;;;;;5063452;28;20187;-69
2021/04/01 13:28:02;;;;;;;91.18;42.83;;;20.70;99.90;;;;;;5107474;28;20170;-69
2021/04/01 13:30:30;;;;;;;76.38;36.63;;;21.00;99.90;;;;;;5089434;28;20211;-69
2021/04/01 13:37:52;;;;;;;64.45;29.45;;;20.60;99.90;;;;;;5107258;28;20178;-69
2021/04/01 13:40:20;;;;;;;62.55;25.67;;;20.60;99.90;;;;;;5107202;28;20167;-68
2021/04/01 13:42:51;;;;;;;48.38;21.05;;;20.60;99.90;;;;;;5107314;28;20174;-69
2021/04/01 13:45:24;;;;;;;50.13;19.13;;;20.80;99.90;;;;;;5104744;28;20292;-69
2021/04/01 13:48:05;;;;;;;59.53;19.08;;;21.00;99.90;;;;;;5107576;28;20603;-68
2021/04/01 13:50:34;;;;;;;48.97;20.50;;;21.20;99.90;;;;;;5107243;28;20167;-69
2021/04/01 13:55:51;;;;;;;49.55;18.05;;;21.40;99.90;;;;;;5104056;28;20266;-69
2021/04/01 14:09:24;;;;;;;31.55;11.52;;;23.90;99.90;;;;;;5106018;28;20330;-69
2021/04/01 14:11:50;;;;;;;21.95;10.98;;;24.40;99.90;;;;;;5106728;28;20163;-68
2021/04/01 14:14:16;;;;;;;27.05;10.98;;;24.30;99.90;;;;;;5106370;28;20212;-68
2021/04/01 14:16:42;;;;;;;27.35;10.13;;;23.60;99.90;;;;;;5104173;28;20190;-69
2021/04/01 14:19:09;;;;;;;26.67;10.52;;;23.60;99.90;;;;;;5105858;28;20159;-68
2021/04/01 14:21:35;;;;;;;22.27;10.50;;;23.40;99.90;;;;;;5087492;28;20240;-68
2021/04/01 14:24:11;;;;;;;27.42;9.80;;;23.30;99.90;;;;;;5106564;28;20199;-69
2021/04/01 14:26:47;;;;;;;27.83;9.57;;;23.80;99.90;;;;;;5085791;28;20175;-68
2021/04/01 14:29:13;;;;;;;17.52;8.57;;;24.40;99.90;;;;;;5087515;28;20229;-69
2021/04/01 14:31:39;;;;;;;21.88;8.80;;;24.70;99.90;;;;;;5106362;28;20227;-68
2021/04/01 14:34:05;;;;;;;19.13;8.50;;;24.10;99.90;;;;;;5105933;28;20229;-68